createdAt,value
2023-04-15T00:00:57.945Z,626.00
2023-04-15T00:01:58.074Z,624.00
2023-04-15T00:02:58.162Z,623.00
2023-04-15T00:03:58.019Z,626.00
2023-04-15T00:04:57.959Z,627.00
2023-04-15T00:05:57.944Z,622.00
2023-04-15T00:06:57.900Z,624.00
2023-04-15T00:07:57.948Z,623.00
2023-04-15T00:08:58.073Z,623.00
2023-04-15T00:09:57.919Z,614.00
2023-04-15T00:10:57.910Z,622.00
2023-04-15T00:11:57.886Z,622.00
2023-04-15T00:12:57.908Z,619.00
2023-04-15T00:13:57.870Z,618.00
2023-04-15T00:14:57.902Z,620.00
2023-04-15T00:15:57.857Z,614.00
2023-04-15T00:16:58.082Z,620.00
2023-04-15T00:17:57.880Z,616.00
2023-04-15T00:18:58.092Z,615.00
2023-04-15T00:19:57.846Z,613.00
2023-04-15T00:20:57.821Z,611.00
2023-04-15T00:21:57.839Z,609.00
2023-04-15T00:22:57.815Z,614.00
2023-04-15T00:23:57.808Z,616.00
2023-04-15T00:24:57.807Z,617.00
2023-04-15T00:25:57.831Z,606.00
2023-04-15T00:26:57.804Z,609.00
2023-04-15T00:27:57.801Z,615.00
2023-04-15T00:28:58.569Z,609.00
2023-04-15T00:29:57.788Z,608.00
2023-04-15T00:30:57.829Z,612.00
2023-04-15T00:31:57.744Z,614.00
2023-04-15T00:32:57.777Z,613.00
2023-04-15T00:33:57.731Z,611.00
2023-04-15T00:34:57.738Z,612.00
2023-04-15T00:35:57.746Z,612.00
2023-04-15T00:36:57.711Z,607.00
2023-04-15T00:37:57.710Z,610.00
2023-04-15T00:38:57.908Z,611.00
2023-04-15T00:39:57.699Z,611.00
2023-04-15T00:40:57.707Z,613.00
2023-04-15T00:41:57.696Z,608.00
2023-04-15T00:42:57.658Z,610.00
2023-04-15T00:43:57.705Z,612.00
2023-04-15T00:44:57.713Z,608.00
2023-04-15T00:45:57.694Z,606.00
2023-04-15T00:46:57.666Z,606.00
2023-04-15T00:47:57.720Z,609.00
2023-04-15T00:48:57.783Z,607.00
2023-04-15T00:49:57.611Z,607.00
2023-04-15T00:50:57.619Z,603.00
2023-04-15T00:51:57.633Z,606.00
2023-04-15T00:52:57.611Z,608.00
2023-04-15T00:53:57.616Z,600.00
2023-04-15T00:54:57.622Z,605.00
2023-04-15T00:55:57.585Z,601.00
2023-04-15T00:56:57.592Z,601.00
2023-04-15T00:57:57.584Z,595.00
2023-04-15T00:58:57.698Z,600.00
2023-04-15T00:59:57.561Z,604.00
2023-04-15T01:00:57.588Z,604.00
2023-04-15T01:01:57.750Z,604.00
2023-04-15T01:02:57.805Z,599.00
2023-04-15T01:03:57.783Z,604.00
2023-04-15T01:04:57.721Z,602.00
2023-04-15T01:05:57.742Z,603.00
2023-04-15T01:06:57.803Z,594.00
2023-04-15T01:07:57.820Z,597.00
2023-04-15T01:08:57.952Z,594.00
2023-04-15T01:09:57.901Z,599.00
2023-04-15T01:10:57.908Z,597.00
2023-04-15T01:11:57.934Z,603.00
2023-04-15T01:12:57.965Z,600.00
2023-04-15T01:13:57.968Z,601.00
2023-04-15T01:14:58.049Z,599.00
2023-04-15T01:15:58.110Z,601.00
2023-04-15T01:16:58.101Z,602.00
2023-04-15T01:17:58.147Z,598.00
2023-04-15T01:18:58.238Z,596.00
2023-04-15T01:19:58.223Z,599.00
2023-04-15T01:20:58.198Z,597.00
2023-04-15T01:21:58.262Z,597.00
2023-04-15T01:22:58.263Z,594.00
2023-04-15T01:23:58.311Z,596.00
2023-04-15T01:24:58.337Z,594.00
2023-04-15T01:25:58.362Z,601.00
2023-04-15T01:26:58.413Z,601.00
2023-04-15T01:27:58.417Z,591.00
2023-04-15T01:28:58.558Z,592.00
2023-04-15T01:29:58.518Z,590.00
2023-04-15T01:30:58.511Z,595.00
2023-04-15T01:31:58.584Z,591.00
2023-04-15T01:32:58.612Z,588.00
2023-04-15T01:33:58.622Z,589.00
2023-04-15T01:34:58.644Z,590.00
2023-04-15T01:35:58.653Z,596.00
2023-04-15T01:36:58.697Z,584.00
2023-04-15T01:37:58.702Z,592.00
2023-04-15T01:38:58.920Z,589.00
2023-04-15T01:39:58.802Z,594.00
2023-04-15T01:40:58.830Z,596.00
2023-04-15T01:41:58.848Z,595.00
2023-04-15T01:42:58.844Z,593.00
2023-04-15T01:43:58.918Z,585.00
2023-04-15T01:44:58.942Z,586.00
2023-04-15T01:45:58.983Z,589.00
2023-04-15T01:46:59.116Z,590.00
2023-04-15T01:47:59.090Z,589.00
2023-04-15T01:48:59.286Z,589.00
2023-04-15T01:49:59.098Z,592.00
2023-04-15T01:50:59.147Z,587.00
2023-04-15T01:51:59.162Z,593.00
2023-04-15T01:52:59.181Z,591.00
2023-04-15T01:53:59.206Z,587.00
2023-04-15T01:54:59.231Z,589.00
2023-04-15T01:55:59.289Z,588.00
2023-04-15T01:56:59.312Z,584.00
2023-04-15T01:57:59.368Z,590.00
2023-04-15T01:58:59.582Z,585.00
2023-04-15T01:59:59.430Z,584.00
2023-04-15T02:00:59.452Z,589.00
2023-04-15T02:01:59.465Z,585.00
2023-04-15T02:02:59.549Z,585.00
2023-04-15T02:03:59.539Z,582.00
2023-04-15T02:04:59.570Z,584.00
2023-04-15T02:05:59.593Z,582.00
2023-04-15T02:06:59.616Z,581.00
2023-04-15T02:07:59.654Z,583.00
2023-04-15T02:09:00.051Z,586.00
2023-04-15T02:09:59.678Z,587.00
2023-04-15T02:10:59.730Z,588.00
2023-04-15T02:11:59.779Z,581.00
2023-04-15T02:12:59.777Z,585.00
2023-04-15T02:13:59.819Z,580.00
2023-04-15T02:14:59.874Z,584.00
2023-04-15T02:15:59.935Z,583.00
2023-04-15T02:16:59.912Z,582.00
2023-04-15T02:17:59.950Z,581.00
2023-04-15T02:19:00.146Z,582.00
2023-04-15T02:20:00.020Z,581.00
2023-04-15T02:21:00.037Z,580.00
2023-04-15T02:22:00.050Z,580.00
2023-04-15T02:23:00.150Z,582.00
2023-04-15T02:24:00.120Z,583.00
2023-04-15T02:25:00.158Z,576.00
2023-04-15T02:26:00.153Z,583.00
2023-04-15T02:27:00.204Z,583.00
2023-04-15T02:28:00.209Z,579.00
2023-04-15T02:29:00.636Z,581.00
2023-04-15T02:30:00.337Z,584.00
2023-04-15T02:31:00.307Z,581.00
2023-04-15T02:32:00.372Z,581.00
2023-04-15T02:33:00.396Z,575.00
2023-04-15T02:34:00.396Z,579.00
2023-04-15T02:35:00.430Z,573.00
2023-04-15T02:36:00.476Z,581.00
2023-04-15T02:37:00.509Z,582.00
2023-04-15T02:38:00.523Z,579.00
2023-04-15T02:39:00.908Z,574.00
2023-04-15T02:40:00.618Z,577.00
2023-04-15T02:41:00.612Z,579.00
2023-04-15T02:42:00.662Z,576.00
2023-04-15T02:43:00.664Z,571.00
2023-04-15T02:44:00.702Z,571.00
2023-04-15T02:45:00.788Z,573.00
2023-04-15T02:46:00.813Z,578.00
2023-04-15T02:47:00.828Z,568.00
2023-04-15T02:48:00.864Z,573.00
2023-04-15T02:49:01.163Z,580.00
2023-04-15T02:50:00.900Z,569.00
2023-04-15T02:51:00.951Z,572.00
2023-04-15T02:52:00.960Z,569.00
2023-04-15T02:53:01.003Z,575.00
2023-04-15T02:54:01.019Z,575.00
2023-04-15T02:55:01.073Z,572.00
2023-04-15T02:56:01.073Z,572.00
2023-04-15T02:57:01.129Z,574.00
2023-04-15T02:58:01.135Z,572.00
2023-04-15T02:59:01.510Z,574.00
2023-04-15T03:00:01.223Z,573.00
2023-04-15T03:01:01.296Z,569.00
2023-04-15T03:02:01.344Z,571.00
2023-04-15T03:03:01.352Z,572.00
2023-04-15T03:04:01.384Z,571.00
2023-04-15T03:05:01.363Z,569.00
2023-04-15T03:06:01.369Z,569.00
2023-04-15T03:07:01.387Z,573.00
2023-04-15T03:08:01.529Z,569.00
2023-04-15T03:09:01.823Z,569.00
2023-04-15T03:10:01.490Z,568.00
2023-04-15T03:11:01.484Z,569.00
2023-04-15T03:12:01.549Z,564.00
2023-04-15T03:13:01.562Z,566.00
2023-04-15T03:14:01.586Z,568.00
2023-04-15T03:15:01.643Z,568.00
2023-04-15T03:16:01.668Z,563.00
2023-04-15T03:17:01.660Z,563.00
2023-04-15T03:18:01.793Z,563.00
2023-04-15T03:19:01.875Z,568.00
2023-04-15T03:20:01.773Z,571.00
2023-04-15T03:21:01.742Z,560.00
2023-04-15T03:22:01.812Z,568.00
2023-04-15T03:23:01.927Z,565.00
2023-04-15T03:24:01.853Z,569.00
2023-04-15T03:25:01.842Z,567.00
2023-04-15T03:26:01.887Z,566.00
2023-04-15T03:27:01.941Z,564.00
2023-04-15T03:28:01.912Z,563.00
2023-04-15T03:29:02.116Z,566.00
2023-04-15T03:30:02.064Z,564.00
2023-04-15T03:31:02.041Z,564.00
2023-04-15T03:32:02.041Z,562.00
2023-04-15T03:33:02.138Z,569.00
2023-04-15T03:34:02.120Z,566.00
2023-04-15T03:35:02.240Z,564.00
2023-04-15T03:36:02.226Z,564.00
2023-04-15T03:37:02.204Z,563.00
2023-04-15T03:38:02.296Z,560.00
2023-04-15T03:39:02.507Z,561.00
2023-04-15T03:40:02.307Z,563.00
2023-04-15T03:41:02.316Z,562.00
2023-04-15T03:42:02.370Z,562.00
2023-04-15T03:43:02.368Z,558.00
2023-04-15T03:44:02.412Z,561.00
2023-04-15T03:45:02.435Z,562.00
2023-04-15T03:46:02.524Z,564.00
2023-04-15T03:47:02.480Z,563.00
2023-04-15T03:49:02.706Z,559.00
2023-04-15T03:50:02.529Z,565.00
2023-04-15T03:51:02.479Z,558.00
2023-04-15T03:52:02.489Z,555.00
2023-04-15T03:53:02.469Z,558.00
2023-04-15T03:54:02.494Z,563.00
2023-04-15T03:55:02.458Z,553.00
2023-04-15T03:56:02.448Z,561.00
2023-04-15T03:57:02.460Z,559.00
2023-04-15T03:58:02.452Z,561.00
2023-04-15T03:59:02.761Z,557.00
2023-04-15T04:00:02.460Z,561.00
2023-04-15T04:01:02.390Z,557.00
2023-04-15T04:02:02.567Z,560.00
2023-04-15T04:03:02.503Z,560.00
2023-04-15T04:04:02.462Z,555.00
2023-04-15T04:05:02.420Z,557.00
2023-04-15T04:06:02.396Z,551.00
2023-04-15T04:07:02.373Z,558.00
2023-04-15T04:08:02.386Z,553.00
2023-04-15T04:09:02.707Z,558.00
2023-04-15T04:10:02.355Z,553.00
2023-04-15T04:11:02.357Z,551.00
2023-04-15T04:12:02.363Z,548.00
2023-04-15T04:13:02.340Z,557.00
2023-04-15T04:14:02.329Z,551.00
2023-04-15T04:15:02.446Z,554.00
2023-04-15T04:16:02.402Z,552.00
2023-04-15T04:17:02.333Z,553.00
2023-04-15T04:18:02.377Z,555.00
2023-04-15T04:19:02.752Z,551.00
2023-04-15T04:20:02.319Z,551.00
2023-04-15T04:21:02.287Z,557.00
2023-04-15T04:22:02.292Z,555.00
2023-04-15T04:23:02.275Z,553.00
2023-04-15T04:24:02.265Z,551.00
2023-04-15T04:25:02.247Z,553.00
2023-04-15T04:26:02.291Z,550.00
2023-04-15T04:27:02.277Z,551.00
2023-04-15T04:28:02.251Z,553.00
2023-04-15T04:29:02.328Z,549.00
2023-04-15T04:30:02.227Z,547.00
2023-04-15T04:31:02.334Z,549.00
2023-04-15T04:32:02.258Z,548.00
2023-04-15T04:33:02.260Z,548.00
2023-04-15T04:34:02.205Z,550.00
2023-04-15T04:35:02.193Z,555.00
2023-04-15T04:36:02.181Z,549.00
2023-04-15T04:37:02.216Z,548.00
2023-04-15T04:38:02.165Z,549.00
2023-04-15T04:39:02.385Z,546.00
2023-04-15T04:40:02.234Z,542.00
2023-04-15T04:41:02.153Z,541.00
2023-04-15T04:42:02.137Z,548.00
2023-04-15T04:43:02.168Z,548.00
2023-04-15T04:44:02.139Z,549.00
2023-04-15T04:45:02.205Z,546.00
2023-04-15T04:46:02.158Z,549.00
2023-04-15T04:47:02.178Z,545.00
2023-04-15T04:48:02.160Z,543.00
2023-04-15T04:49:02.522Z,545.00
2023-04-15T04:50:02.195Z,542.00
2023-04-15T04:51:02.206Z,544.00
2023-04-15T04:52:02.226Z,545.00
2023-04-15T04:53:02.299Z,545.00
2023-04-15T04:54:03.653Z,543.00
2023-04-15T04:55:02.355Z,544.00
2023-04-15T04:56:02.383Z,543.00
2023-04-15T04:57:02.424Z,541.00
2023-04-15T04:58:02.430Z,547.00
2023-04-15T04:59:02.655Z,543.00
2023-04-15T05:00:02.477Z,543.00
2023-04-15T05:01:02.520Z,538.00
2023-04-15T05:02:02.614Z,542.00
2023-04-15T05:03:02.682Z,545.00
2023-04-15T05:04:02.811Z,541.00
2023-04-15T05:05:02.651Z,542.00
2023-04-15T05:06:02.651Z,540.00
2023-04-15T05:07:02.670Z,536.00
2023-04-15T05:08:02.698Z,538.00
2023-04-15T05:09:03.080Z,531.00
2023-04-15T05:10:02.751Z,539.00
2023-04-15T05:11:02.807Z,542.00
2023-04-15T05:12:02.825Z,534.00
2023-04-15T05:13:02.867Z,537.00
2023-04-15T05:14:02.908Z,536.00
2023-04-15T05:15:02.922Z,534.00
2023-04-15T05:16:02.998Z,539.00
2023-04-15T05:17:02.983Z,536.00
2023-04-15T05:18:03.040Z,536.00
2023-04-15T05:19:03.288Z,535.00
2023-04-15T05:20:03.170Z,531.00
2023-04-15T05:21:03.098Z,535.00
2023-04-15T05:22:03.150Z,535.00
2023-04-15T05:23:03.183Z,533.00
2023-04-15T05:24:03.198Z,533.00
2023-04-15T05:25:03.312Z,533.00
2023-04-15T05:26:03.245Z,533.00
2023-04-15T05:27:03.277Z,533.00
2023-04-15T05:28:03.294Z,532.00
2023-04-15T05:29:03.461Z,537.00
2023-04-15T05:30:03.363Z,532.00
2023-04-15T05:31:03.422Z,532.00
2023-04-15T05:32:03.449Z,530.00
2023-04-15T05:33:03.467Z,531.00
2023-04-15T05:34:03.490Z,532.00
2023-04-15T05:35:03.499Z,534.00
2023-04-15T05:36:03.531Z,529.00
2023-04-15T05:37:03.574Z,528.00
2023-04-15T05:38:03.613Z,528.00
2023-04-15T05:39:03.797Z,532.00
2023-04-15T05:40:03.685Z,529.00
2023-04-15T05:41:03.684Z,531.00
2023-04-15T05:42:03.722Z,527.00
2023-04-15T05:43:03.772Z,529.00
2023-04-15T05:44:03.788Z,531.00
2023-04-15T05:45:03.813Z,531.00
2023-04-15T05:46:03.917Z,530.00
2023-04-15T05:47:03.861Z,525.00
2023-04-15T05:48:03.913Z,529.00
2023-04-15T05:49:04.098Z,524.00
2023-04-15T05:50:03.950Z,526.00
2023-04-15T05:51:04.037Z,530.00
2023-04-15T05:52:04.024Z,525.00
2023-04-15T05:53:04.058Z,524.00
2023-04-15T05:54:04.074Z,529.00
2023-04-15T05:55:04.083Z,526.00
2023-04-15T05:56:04.130Z,523.00
2023-04-15T05:57:04.159Z,527.00
2023-04-15T05:58:04.143Z,526.00
2023-04-15T05:59:04.195Z,526.00
2023-04-15T06:00:04.223Z,522.00
2023-04-15T06:01:04.291Z,526.00
2023-04-15T06:02:04.332Z,522.00
2023-04-15T06:03:04.408Z,525.00
2023-04-15T06:04:04.449Z,524.00
2023-04-15T06:05:04.421Z,523.00
2023-04-15T06:06:04.404Z,521.00
2023-04-15T06:07:04.463Z,521.00
2023-04-15T06:08:04.475Z,523.00
2023-04-15T06:09:04.582Z,523.00
2023-04-15T06:10:04.535Z,517.00
2023-04-15T06:11:04.560Z,526.00
2023-04-15T06:12:04.559Z,524.00
2023-04-15T06:13:04.589Z,524.00
2023-04-15T06:14:04.653Z,524.00
2023-04-15T06:15:04.668Z,521.00
2023-04-15T06:16:04.752Z,522.00
2023-04-15T06:17:04.729Z,519.00
2023-04-15T06:18:04.739Z,520.00
2023-04-15T06:19:04.794Z,522.00
2023-04-15T06:20:04.802Z,523.00
2023-04-15T06:21:04.850Z,515.00
2023-04-15T06:22:04.843Z,520.00
2023-04-15T06:23:04.891Z,520.00
2023-04-15T06:24:04.906Z,520.00
2023-04-15T06:25:04.928Z,519.00
2023-04-15T06:26:04.934Z,518.00
2023-04-15T06:27:04.994Z,519.00
2023-04-15T06:28:05.006Z,526.00
2023-04-15T06:29:05.053Z,520.00
2023-04-15T06:30:05.130Z,521.00
2023-04-15T06:31:05.093Z,515.00
2023-04-15T06:32:05.125Z,521.00
2023-04-15T06:33:05.194Z,516.00
2023-04-15T06:34:05.194Z,521.00
2023-04-15T06:35:05.245Z,520.00
2023-04-15T06:36:05.261Z,507.00
2023-04-15T06:37:06.406Z,511.00
2023-04-15T06:38:05.303Z,521.00
2023-04-15T06:39:05.339Z,519.00
2023-04-15T06:40:05.394Z,518.00
2023-04-15T06:41:05.398Z,515.00
2023-04-15T06:42:05.435Z,514.00
2023-04-15T06:43:05.424Z,515.00
2023-04-15T06:44:05.470Z,516.00
2023-04-15T06:45:05.529Z,515.00
2023-04-15T06:46:05.546Z,510.00
2023-04-15T06:47:05.542Z,522.00
2023-04-15T06:48:05.610Z,515.00
2023-04-15T06:49:05.628Z,517.00
2023-04-15T06:50:05.661Z,510.00
2023-04-15T06:51:05.684Z,516.00
2023-04-15T06:52:05.673Z,515.00
2023-04-15T06:53:05.724Z,515.00
2023-04-15T06:54:05.744Z,510.00
2023-04-15T06:55:05.799Z,514.00
2023-04-15T06:56:05.793Z,512.00
2023-04-15T06:57:05.812Z,512.00
2023-04-15T06:58:05.848Z,512.00
2023-04-15T06:59:05.861Z,517.00
2023-04-15T07:00:05.937Z,513.00
2023-04-15T07:01:05.980Z,513.00
2023-04-15T07:02:06.016Z,513.00
2023-04-15T07:03:06.012Z,514.00
2023-04-15T07:04:06.037Z,511.00
2023-04-15T07:05:06.030Z,508.00
2023-04-15T07:06:06.085Z,514.00
2023-04-15T07:07:06.085Z,512.00
2023-04-15T07:08:06.148Z,512.00
2023-04-15T07:09:06.186Z,509.00
2023-04-15T07:10:06.188Z,508.00
2023-04-15T07:11:06.202Z,513.00
2023-04-15T07:12:06.213Z,505.00
2023-04-15T07:13:06.252Z,508.00
2023-04-15T07:14:06.266Z,509.00
2023-04-15T07:15:06.305Z,510.00
2023-04-15T07:16:06.312Z,520.00
2023-04-15T07:17:06.495Z,513.00
2023-04-15T07:18:06.383Z,506.00
2023-04-15T07:19:06.440Z,515.00
2023-04-15T07:20:06.439Z,512.00
2023-04-15T07:21:06.558Z,513.00
2023-04-15T07:22:06.506Z,513.00
2023-04-15T07:23:06.529Z,515.00
2023-04-15T07:24:06.583Z,510.00
2023-04-15T07:25:06.603Z,510.00
2023-04-15T07:26:06.624Z,510.00
2023-04-15T07:27:06.645Z,511.00
2023-04-15T07:28:06.687Z,510.00
2023-04-15T07:29:06.711Z,509.00
2023-04-15T07:30:06.731Z,508.00
2023-04-15T07:31:06.771Z,507.00
2023-04-15T07:32:06.806Z,505.00
2023-04-15T07:33:06.797Z,513.00
2023-04-15T07:34:06.841Z,505.00
2023-04-15T07:35:06.854Z,506.00
2023-04-15T07:36:06.891Z,509.00
2023-04-15T07:37:06.936Z,506.00
2023-04-15T07:38:06.944Z,511.00
2023-04-15T07:39:06.978Z,507.00
2023-04-15T07:40:07.029Z,511.00
2023-04-15T07:41:07.037Z,509.00
2023-04-15T07:42:07.073Z,511.00
2023-04-15T07:43:07.065Z,509.00
2023-04-15T07:44:07.124Z,508.00
2023-04-15T07:45:07.133Z,500.00
2023-04-15T07:46:07.239Z,511.00
2023-04-15T07:47:07.187Z,511.00
2023-04-15T07:48:07.193Z,513.00
2023-04-15T07:49:07.247Z,510.00
2023-04-15T07:50:07.288Z,511.00
2023-04-15T07:51:07.297Z,510.00
2023-04-15T07:52:07.328Z,511.00
2023-04-15T07:53:07.364Z,510.00
2023-04-15T07:54:07.395Z,510.00
2023-04-15T07:55:07.418Z,510.00
2023-04-15T07:56:07.428Z,506.00
2023-04-15T07:57:07.484Z,500.00
2023-04-15T07:58:07.482Z,507.00
2023-04-15T07:59:07.534Z,508.00
2023-04-15T08:00:07.617Z,506.00
2023-04-15T08:01:07.552Z,511.00
2023-04-15T08:02:07.597Z,507.00
2023-04-15T08:03:07.762Z,504.00
2023-04-15T08:04:07.790Z,515.00
2023-04-15T08:05:07.757Z,507.00
2023-04-15T08:06:07.696Z,512.00
2023-04-15T08:07:07.736Z,509.00
2023-04-15T08:08:07.745Z,510.00
2023-04-15T08:09:07.762Z,513.00
2023-04-15T08:10:07.811Z,517.00
2023-04-15T08:11:07.795Z,510.00
2023-04-15T08:12:07.844Z,510.00
2023-04-15T08:13:07.838Z,502.00
2023-04-15T08:14:07.888Z,512.00
2023-04-15T08:15:07.927Z,511.00
2023-04-15T08:16:07.991Z,505.00
2023-04-15T08:17:07.975Z,515.00
2023-04-15T08:18:07.992Z,514.00
2023-04-15T08:19:08.039Z,511.00
2023-04-15T08:20:08.051Z,506.00
2023-04-15T08:21:08.076Z,509.00
2023-04-15T08:22:10.343Z,505.00
2023-04-15T08:23:08.079Z,511.00
2023-04-15T08:24:08.118Z,513.00
2023-04-15T08:25:08.052Z,511.00
2023-04-15T08:26:08.062Z,510.00
2023-04-15T08:27:08.091Z,506.00
2023-04-15T08:28:08.052Z,508.00
2023-04-15T08:29:08.037Z,512.00
2023-04-15T08:30:08.051Z,504.00
2023-04-15T08:31:08.121Z,512.00
2023-04-15T08:32:08.038Z,509.00
2023-04-15T08:33:08.042Z,509.00
2023-04-15T08:34:08.009Z,508.00
2023-04-15T08:35:08.028Z,505.00
2023-04-15T08:36:08.022Z,504.00
2023-04-15T08:37:08.028Z,505.00
2023-04-15T08:38:07.997Z,509.00
2023-04-15T08:39:07.995Z,504.00
2023-04-15T08:40:07.987Z,500.00
2023-04-15T08:41:08.047Z,511.00
2023-04-15T08:42:07.964Z,508.00
2023-04-15T08:43:07.950Z,505.00
2023-04-15T08:44:07.955Z,510.00
2023-04-15T08:45:07.936Z,508.00
2023-04-15T08:46:07.936Z,510.00
2023-04-15T08:47:09.565Z,511.00
2023-04-15T08:48:07.919Z,511.00
2023-04-15T08:49:07.896Z,508.00
2023-04-15T08:50:07.940Z,509.00
2023-04-15T08:51:07.920Z,506.00
2023-04-15T08:52:07.907Z,517.00
2023-04-15T08:53:07.911Z,509.00
2023-04-15T08:54:07.883Z,507.00
2023-04-15T08:55:07.872Z,510.00
2023-04-15T08:56:07.864Z,506.00
2023-04-15T08:57:07.863Z,508.00
2023-04-15T08:58:07.867Z,515.00
2023-04-15T08:59:07.855Z,507.00
2023-04-15T09:00:07.958Z,510.00
2023-04-15T09:01:07.855Z,509.00
2023-04-15T09:02:07.903Z,505.00
2023-04-15T09:03:07.902Z,510.00
2023-04-15T09:04:07.990Z,503.00
2023-04-15T09:05:07.854Z,507.00
2023-04-15T09:06:07.796Z,504.00
2023-04-15T09:07:07.808Z,505.00
2023-04-15T09:08:08.512Z,505.00
2023-04-15T09:09:07.801Z,507.00
2023-04-15T09:10:07.803Z,500.00
2023-04-15T09:11:07.809Z,509.00
2023-04-15T09:12:07.762Z,504.00
2023-04-15T09:13:07.778Z,505.00
2023-04-15T09:14:07.820Z,511.00
2023-04-15T09:15:07.817Z,501.00
2023-04-15T09:16:07.896Z,509.00
2023-04-15T09:17:07.894Z,508.00
2023-04-15T09:18:07.913Z,507.00
2023-04-15T09:19:07.920Z,510.00
2023-04-15T09:20:07.973Z,507.00
2023-04-15T09:21:07.971Z,507.00
2023-04-15T09:22:07.963Z,512.00
2023-04-15T09:23:08.027Z,509.00
2023-04-15T09:24:08.027Z,502.00
2023-04-15T09:25:08.027Z,507.00
2023-04-15T09:26:08.040Z,509.00
2023-04-15T09:27:08.078Z,507.00
2023-04-15T09:28:08.091Z,509.00
2023-04-15T09:29:08.093Z,504.00
2023-04-15T09:30:08.204Z,509.00
2023-04-15T09:31:08.168Z,511.00
2023-04-15T09:32:08.144Z,510.00
2023-04-15T09:33:08.345Z,512.00
2023-04-15T09:34:08.193Z,502.00
2023-04-15T09:35:08.197Z,511.00
2023-04-15T09:36:08.207Z,511.00
2023-04-15T09:37:08.231Z,509.00
2023-04-15T09:38:08.240Z,511.00
2023-04-15T09:39:08.227Z,510.00
2023-04-15T09:40:08.295Z,512.00
2023-04-15T09:41:08.273Z,511.00
2023-04-15T09:42:08.405Z,503.00
2023-04-15T09:43:08.314Z,508.00
2023-04-15T09:44:08.318Z,513.00
2023-04-15T09:45:08.361Z,506.00
2023-04-15T09:46:08.440Z,508.00
2023-04-15T09:47:08.356Z,507.00
2023-04-15T09:48:09.802Z,510.00
2023-04-15T09:49:08.438Z,509.00
2023-04-15T09:50:08.471Z,505.00
2023-04-15T09:51:08.468Z,513.00
2023-04-15T09:52:08.466Z,508.00
2023-04-15T09:53:08.504Z,511.00
2023-04-15T09:54:08.532Z,510.00
2023-04-15T09:55:08.563Z,508.00
2023-04-15T09:56:08.565Z,512.00
2023-04-15T09:57:08.608Z,505.00
2023-04-15T09:58:08.605Z,511.00
2023-04-15T09:59:08.667Z,510.00
2023-04-15T10:00:08.673Z,506.00
2023-04-15T10:01:08.791Z,505.00
2023-04-15T10:02:08.778Z,510.00
2023-04-15T10:03:08.843Z,507.00
2023-04-15T10:04:08.826Z,513.00
2023-04-15T10:05:08.762Z,510.00
2023-04-15T10:06:08.773Z,512.00
2023-04-15T10:07:08.803Z,512.00
2023-04-15T10:08:08.800Z,507.00
2023-04-15T10:09:08.834Z,513.00
2023-04-15T10:10:08.847Z,514.00
2023-04-15T10:11:08.887Z,507.00
2023-04-15T10:12:08.896Z,512.00
2023-04-15T10:13:08.924Z,509.00
2023-04-15T10:14:08.920Z,513.00
2023-04-15T10:15:08.982Z,504.00
2023-04-15T10:16:09.018Z,506.00
2023-04-15T10:17:08.992Z,507.00
2023-04-15T10:18:09.010Z,509.00
2023-04-15T10:19:09.054Z,508.00
2023-04-15T10:20:09.043Z,512.00
2023-04-15T10:21:09.070Z,509.00
2023-04-15T10:22:09.090Z,511.00
2023-04-15T10:23:10.383Z,511.00
2023-04-15T10:24:09.147Z,506.00
2023-04-15T10:25:09.196Z,513.00
2023-04-15T10:26:09.156Z,513.00
2023-04-15T10:27:09.176Z,513.00
2023-04-15T10:28:09.232Z,506.00
2023-04-15T10:29:09.228Z,512.00
2023-04-15T10:30:09.282Z,505.00
2023-04-15T10:31:09.283Z,501.00
2023-04-15T10:32:09.306Z,510.00
2023-04-15T10:33:09.279Z,510.00
2023-04-15T10:34:09.293Z,505.00
2023-04-15T10:35:09.338Z,512.00
2023-04-15T10:36:09.359Z,504.00
2023-04-15T10:37:09.375Z,509.00
2023-04-15T10:38:09.375Z,512.00
2023-04-15T10:39:09.397Z,509.00
2023-04-15T10:40:09.482Z,510.00
2023-04-15T10:41:09.404Z,515.00
2023-04-15T10:42:09.445Z,508.00
2023-04-15T10:43:09.472Z,509.00
2023-04-15T10:44:09.463Z,516.00
2023-04-15T10:45:09.505Z,512.00
2023-04-15T10:46:09.515Z,514.00
2023-04-15T10:47:09.538Z,509.00
2023-04-15T10:48:09.581Z,510.00
2023-04-15T10:49:09.538Z,505.00
2023-04-15T10:50:09.584Z,507.00
2023-04-15T10:51:09.598Z,512.00
2023-04-15T10:52:09.600Z,515.00
2023-04-15T10:53:09.623Z,511.00
2023-04-15T10:54:09.624Z,518.00
2023-04-15T10:55:09.649Z,509.00
2023-04-15T10:56:09.662Z,516.00
2023-04-15T10:57:09.675Z,516.00
2023-04-15T10:58:09.653Z,517.00
2023-04-15T10:59:09.674Z,511.00
2023-04-15T11:00:09.675Z,519.00
2023-04-15T11:01:09.691Z,515.00
2023-04-15T11:02:09.752Z,514.00
2023-04-15T11:03:09.925Z,519.00
2023-04-15T11:04:09.896Z,513.00
2023-04-15T11:05:09.785Z,516.00
2023-04-15T11:06:09.790Z,510.00
2023-04-15T11:07:09.821Z,516.00
2023-04-15T11:08:09.820Z,506.00
2023-04-15T11:09:09.835Z,514.00
2023-04-15T11:10:09.831Z,512.00
2023-04-15T11:11:09.838Z,512.00
2023-04-15T11:12:09.984Z,514.00
2023-04-15T11:13:09.899Z,518.00
2023-04-15T11:14:09.895Z,509.00
2023-04-15T11:15:09.908Z,511.00
2023-04-15T11:16:09.925Z,507.00
2023-04-15T11:17:09.897Z,515.00
2023-04-15T11:18:09.945Z,517.00
2023-04-15T11:19:09.928Z,509.00
2023-04-15T11:20:09.926Z,512.00
2023-04-15T11:21:09.922Z,519.00
2023-04-15T11:22:09.935Z,511.00
2023-04-15T11:23:15.295Z,516.00
2023-04-15T11:24:10.947Z,516.00
2023-04-15T11:25:09.965Z,517.00
2023-04-15T11:26:09.997Z,514.00
2023-04-15T11:27:09.927Z,516.00
2023-04-15T11:28:09.905Z,520.00
2023-04-15T11:29:09.915Z,517.00
2023-04-15T11:30:09.889Z,520.00
2023-04-15T11:31:09.907Z,511.00
2023-04-15T11:32:09.929Z,519.00
2023-04-15T11:33:09.907Z,519.00
2023-04-15T11:34:09.898Z,515.00
2023-04-15T11:35:09.869Z,514.00
2023-04-15T11:36:09.876Z,517.00
2023-04-15T11:37:09.841Z,517.00
2023-04-15T11:38:09.863Z,517.00
2023-04-15T11:39:09.850Z,513.00
2023-04-15T11:40:09.848Z,517.00
2023-04-15T11:41:09.857Z,515.00
2023-04-15T11:42:09.842Z,517.00
2023-04-15T11:43:09.842Z,519.00
2023-04-15T11:44:09.796Z,519.00
2023-04-15T11:45:09.816Z,516.00
2023-04-15T11:46:09.826Z,516.00
2023-04-15T11:47:09.773Z,519.00
2023-04-15T11:48:09.781Z,516.00
2023-04-15T11:49:09.799Z,516.00
2023-04-15T11:50:09.765Z,516.00
2023-04-15T11:51:09.770Z,511.00
2023-04-15T11:52:09.763Z,513.00
2023-04-15T11:53:09.745Z,518.00
2023-04-15T11:54:09.739Z,515.00
2023-04-15T11:55:09.740Z,511.00
2023-04-15T11:56:09.743Z,513.00
2023-04-15T11:57:09.699Z,515.00
2023-04-15T11:58:09.767Z,518.00
2023-04-15T11:59:09.717Z,516.00
2023-04-15T12:00:09.827Z,513.00
2023-04-15T12:01:09.768Z,517.00
2023-04-15T12:02:09.878Z,520.00
2023-04-15T12:03:09.941Z,517.00
2023-04-15T12:04:10.165Z,515.00
2023-04-15T12:05:09.813Z,515.00
2023-04-15T12:06:09.806Z,516.00
2023-04-15T12:07:09.805Z,513.00
2023-04-15T12:08:09.845Z,516.00
2023-04-15T12:09:09.831Z,512.00
2023-04-15T12:10:09.890Z,517.00
2023-04-15T12:11:09.849Z,517.00
2023-04-15T12:12:09.851Z,516.00
2023-04-15T12:13:09.941Z,519.00
2023-04-15T12:14:09.847Z,520.00
2023-04-15T12:15:09.856Z,516.00
2023-04-15T12:16:09.875Z,518.00
2023-04-15T12:17:09.850Z,525.00
2023-04-15T12:18:09.900Z,520.00
2023-04-15T12:19:09.884Z,522.00
2023-04-15T12:20:09.913Z,518.00
2023-04-15T12:21:09.891Z,518.00
2023-04-15T12:22:09.884Z,524.00
2023-04-15T12:23:09.912Z,519.00
2023-04-15T12:24:09.912Z,512.00
2023-04-15T12:25:09.917Z,515.00
2023-04-15T12:26:09.924Z,521.00
2023-04-15T12:27:10.004Z,519.00
2023-04-15T12:28:09.911Z,519.00
2023-04-15T12:29:09.945Z,518.00
2023-04-15T12:30:09.956Z,518.00